Sanford, NC

6:52 PM EST on March 04, 2015 (GMT -0500)
Harnett County | Change Station
CLOSE
Current Station
Airport
Location: Erwin,
Elevation: 197 ft
Nearby Weather Stations

Elev 197 ft 35.38 °N, 78.73 °W | Updated 17 minutes ago

Clear
Clear
70 °F
Feels Like 70 °F
N
9
Wind Variable Wind from South

Today
High -- | Low -- °F
--% Chance of Precip.
Yesterday
High -- | Low -- °F
Precip. -- in
6:42 AM 6:14 PM
Waxing Gibbous, 99% visible
Pressure 29.89 in
Visibility 10.0 miles
Clouds Clear
Dew Point 57 °F
Humidity 64%
Rainfall 0.01 in
Snow Depth Not available.
UV 0 out of 12
Pollen 8.20 out of 12
Air Quality Not available.
Flu Activity Not available.
METAR KHRJ 042335Z AUTO 19008KT 10SM CLR 21/14 A2989 RMK AO2 T02120141

More Conditions Fewer Conditions

Pressure 29.89 in
Visibility 10.0 miles
Clouds Clear
Dew Point 57 °F
Humidity 64%
Rainfall 0.01 in
Snow Depth Not available.
UV 0 out of 12
Pollen 8.20 out of 12
Air Quality Not available.
Flu Activity Not available.
METAR KHRJ 042335Z AUTO 19008KT 10SM CLR 21/14 A2989 RMK AO2 T02120141

More Conditions Fewer Conditions

10-Day Weather Forecast

Almanac

Astronomy

Mar. 04, 2015 Rise Set
Actual Time
Civil Twilight
Nautical Twilight
Astronomical Twilight
Moon
Length of Visible Light
Length of Day
Tomorrow will be .
, % of the Moon is Illuminated

Today's Extremes

State Highs State Lows

Community

WunderPhotos

Upload Photos

1,802,605 photos uploaded!

WunderBlogs® & News

Nearby

Air Quality

  Air Quality AQ Index Pollutant
Not available.

Snow Depth

Station Depth Elevation

Earthquake Activity

City Distance Mag. Time & Date
Minimum magnitude displayed is 2.5.

Coastal Water Temperatures

Place Temperature

Nearby Weather Stations